createdAt,value
2022-11-05T00:00:08.905Z,10.13
2022-11-05T00:02:54.183Z,10.10
2022-11-05T00:05:39.467Z,10.05
2022-11-05T00:08:24.586Z,10.05
2022-11-05T00:10:51.161Z,12.70
2022-11-05T00:13:37.499Z,10.90
2022-11-05T00:16:22.568Z,8.65
2022-11-05T00:19:06.873Z,10.68
2022-11-05T00:21:52.946Z,9.73
2022-11-05T00:24:38.709Z,8.18
2022-11-05T00:27:05.199Z,13.75
2022-11-05T00:29:31.805Z,8.85
2022-11-05T00:31:58.354Z,8.75
2022-11-05T00:34:24.945Z,8.80
2022-11-05T00:36:51.484Z,12.55
2022-11-05T00:39:18.063Z,11.85
2022-11-05T00:42:04.603Z,9.00
2022-11-05T00:44:49.484Z,10.98
2022-11-05T00:47:34.751Z,10.18
2022-11-05T00:50:01.234Z,8.85
2022-11-05T00:52:46.206Z,9.43
2022-11-05T00:55:12.910Z,9.55
2022-11-05T00:57:39.804Z,10.63
2022-11-05T01:00:06.810Z,7.80
2022-11-05T01:02:33.466Z,11.27
2022-11-05T01:05:00.040Z,9.48
2022-11-05T01:07:26.614Z,8.45
2022-11-05T01:09:53.056Z,9.10
2022-11-05T01:12:19.719Z,10.18
2022-11-05T01:14:46.332Z,10.15
2022-11-05T01:17:12.892Z,8.88
2022-11-05T01:19:39.738Z,8.73
2022-11-05T01:22:06.418Z,8.40
2022-11-05T01:24:32.991Z,10.18
2022-11-05T01:26:59.860Z,9.70
2022-11-05T01:29:26.540Z,9.25
2022-11-05T01:31:53.185Z,11.65
2022-11-05T01:34:19.608Z,9.25
2022-11-05T01:36:46.171Z,8.15
2022-11-05T01:39:12.926Z,9.02
2022-11-05T01:41:39.458Z,9.00
2022-11-05T01:44:06.022Z,8.57
2022-11-05T01:46:41.360Z,9.43
2022-11-05T01:49:22.998Z,7.30
2022-11-05T01:51:51.280Z,10.82
2022-11-05T01:54:24.189Z,9.95
2022-11-05T01:56:54.631Z,8.95
2022-11-05T01:59:29.445Z,8.18
2022-11-05T02:01:58.455Z,11.20
2022-11-05T02:04:35.745Z,7.82
2022-11-05T02:07:04.649Z,9.15
2022-11-05T02:09:36.781Z,8.02
2022-11-05T02:12:03.846Z,8.63
2022-11-05T02:14:30.361Z,11.10
2022-11-05T02:17:03.476Z,10.35
2022-11-05T02:20:17.538Z,9.65
2022-11-05T02:22:53.231Z,11.75
2022-11-05T02:25:59.719Z,8.30
2022-11-05T02:29:01.595Z,11.20
2022-11-05T02:31:43.170Z,9.68
2022-11-05T02:34:27.884Z,8.23
2022-11-05T02:37:04.565Z,9.20
2022-11-05T02:39:47.175Z,11.02
2022-11-05T02:42:16.565Z,7.88
2022-11-05T02:44:57.004Z,10.27
2022-11-05T02:47:42.163Z,8.05
2022-11-05T02:50:21.124Z,9.18
2022-11-05T02:52:57.967Z,10.27
2022-11-05T02:55:40.163Z,11.98
2022-11-05T02:58:07.752Z,8.30
2022-11-05T03:00:53.657Z,11.38
2022-11-05T03:03:35.901Z,10.75
2022-11-05T03:06:25.795Z,11.32
2022-11-05T03:09:11.093Z,9.85
2022-11-05T03:11:53.475Z,10.40
2022-11-05T03:14:32.675Z,10.55
2022-11-05T03:17:09.044Z,8.65
2022-11-05T03:19:47.875Z,8.38
2022-11-05T03:22:24.206Z,8.80
2022-11-05T03:25:02.056Z,11.95
2022-11-05T03:27:35.167Z,11.23
2022-11-05T03:30:10.703Z,11.20
2022-11-05T03:32:42.497Z,8.38
2022-11-05T03:35:16.359Z,8.95
2022-11-05T03:37:45.232Z,11.45
2022-11-05T03:40:14.607Z,8.20
2022-11-05T03:42:46.095Z,7.63
2022-11-05T03:45:21.374Z,10.13
2022-11-05T03:47:52.366Z,10.38
2022-11-05T03:50:21.922Z,11.38
2022-11-05T03:52:53.624Z,11.32
2022-11-05T03:55:26.370Z,7.95
2022-11-05T03:57:55.740Z,10.18
2022-11-05T04:00:23.420Z,12.07
2022-11-05T04:02:50.417Z,9.02
2022-11-05T04:05:17.286Z,9.23
2022-11-05T04:08:03.536Z,10.45
2022-11-05T04:10:48.579Z,9.52
2022-11-05T04:13:24.204Z,9.05
2022-11-05T04:16:10.875Z,10.80
2022-11-05T04:18:38.194Z,9.35
2022-11-05T04:21:24.501Z,9.98
2022-11-05T04:24:09.759Z,10.60
2022-11-05T04:26:41.987Z,8.43
2022-11-05T04:29:27.198Z,9.90
2022-11-05T04:31:54.137Z,10.02
2022-11-05T04:34:22.091Z,10.52
2022-11-05T04:36:50.518Z,11.13
2022-11-05T04:39:18.607Z,8.85
2022-11-05T04:41:48.284Z,13.68
2022-11-05T04:44:15.981Z,13.40
2022-11-05T04:46:42.498Z,8.90
2022-11-05T04:49:09.126Z,10.77
2022-11-05T04:51:35.604Z,11.02
2022-11-05T04:54:02.193Z,10.20
2022-11-05T04:56:29.049Z,11.18
2022-11-05T04:58:55.610Z,9.70
2022-11-05T05:01:25.211Z,9.02
2022-11-05T05:03:53.308Z,12.45
2022-11-05T05:06:21.162Z,11.75
2022-11-05T05:08:49.670Z,9.48
2022-11-05T05:11:19.357Z,10.10
2022-11-05T05:13:45.867Z,9.05
2022-11-05T05:16:23.891Z,11.30
2022-11-05T05:18:51.252Z,11.73
2022-11-05T05:21:38.130Z,10.82
2022-11-05T05:24:10.756Z,9.25
2022-11-05T05:26:39.625Z,9.85
2022-11-05T05:29:06.794Z,9.27
2022-11-05T05:31:33.663Z,10.68
2022-11-05T05:34:00.087Z,13.10
2022-11-05T05:36:27.485Z,9.57
2022-11-05T05:38:54.197Z,11.20
2022-11-05T05:41:21.121Z,10.57
2022-11-05T05:43:47.881Z,11.00
2022-11-05T05:46:16.915Z,11.43
2022-11-05T05:48:47.835Z,10.57
2022-11-05T05:51:14.270Z,10.77
2022-11-05T05:53:40.799Z,9.77
2022-11-05T05:56:07.784Z,9.82
2022-11-05T05:58:39.498Z,9.77
2022-11-05T06:01:18.242Z,9.60
2022-11-05T06:03:45.135Z,9.93
2022-11-05T06:06:15.460Z,10.30
2022-11-05T06:08:42.558Z,10.20
2022-11-05T06:11:09.908Z,12.35
2022-11-05T06:13:37.410Z,11.70
2022-11-05T06:16:06.872Z,12.35
2022-11-05T06:18:34.589Z,10.02
2022-11-05T06:21:12.825Z,13.85
2022-11-05T06:23:40.849Z,11.43
2022-11-05T06:26:16.628Z,8.88
2022-11-05T06:28:43.270Z,8.90
2022-11-05T06:31:11.231Z,11.48
2022-11-05T06:33:38.524Z,13.15
2022-11-05T06:36:06.899Z,12.10
2022-11-05T06:38:35.382Z,11.45
2022-11-05T06:41:09.787Z,12.82
2022-11-05T06:43:37.161Z,13.50
2022-11-05T06:46:05.595Z,12.25
2022-11-05T06:48:32.096Z,14.23
2022-11-05T06:50:58.699Z,13.23
2022-11-05T06:53:25.332Z,12.02
2022-11-05T06:55:52.366Z,11.20
2022-11-05T06:58:18.923Z,10.32
2022-11-05T07:00:46.726Z,18.83
2022-11-05T07:03:14.292Z,10.77
2022-11-05T07:05:48.102Z,11.68
2022-11-05T07:08:15.392Z,12.85
2022-11-05T07:10:42.158Z,12.00
2022-11-05T07:13:09.195Z,11.38
2022-11-05T07:15:37.063Z,14.95
2022-11-05T07:18:04.208Z,12.13
2022-11-05T07:20:33.959Z,11.88
2022-11-05T07:23:13.971Z,12.20
2022-11-05T07:25:42.284Z,11.20
2022-11-05T07:28:10.390Z,11.32
2022-11-05T07:30:37.358Z,10.85
2022-11-05T07:33:04.417Z,13.75
2022-11-05T07:35:31.269Z,13.95
2022-11-05T07:37:58.096Z,9.38
2022-11-05T07:40:26.433Z,13.80
2022-11-05T07:42:58.363Z,14.93
2022-11-05T07:45:26.442Z,14.88
2022-11-05T07:48:01.585Z,12.75
2022-11-05T07:50:31.697Z,12.40
2022-11-05T07:53:16.280Z,12.32
2022-11-05T07:55:43.939Z,12.75
2022-11-05T07:58:12.333Z,16.02
2022-11-05T08:00:39.164Z,14.20
2022-11-05T08:03:15.187Z,12.00
2022-11-05T08:05:46.180Z,16.00
2022-11-05T08:08:17.779Z,13.00
2022-11-05T08:10:45.123Z,11.27
2022-11-05T08:13:13.227Z,10.88
2022-11-05T08:15:40.939Z,14.52
2022-11-05T08:18:13.410Z,11.93
2022-11-05T08:20:41.617Z,13.30
2022-11-05T08:23:09.374Z,9.98
2022-11-05T08:25:36.447Z,15.18
2022-11-05T08:28:13.667Z,10.05
2022-11-05T08:30:40.489Z,10.73
2022-11-05T08:33:11.699Z,12.65
2022-11-05T08:35:39.179Z,8.68
2022-11-05T08:38:07.818Z,14.60
2022-11-05T08:40:36.449Z,12.70
2022-11-05T08:43:05.625Z,11.02
2022-11-05T08:45:32.577Z,8.55
2022-11-05T08:48:00.368Z,13.48
2022-11-05T08:50:27.403Z,9.90
2022-11-05T08:52:53.887Z,8.13
2022-11-05T08:55:20.428Z,10.65
2022-11-05T08:57:47.086Z,13.90
2022-11-05T09:00:14.833Z,9.23
2022-11-05T09:02:41.689Z,10.13
2022-11-05T09:05:08.709Z,13.15
2022-11-05T09:07:35.120Z,9.45
2022-11-05T09:10:01.605Z,10.40
2022-11-05T09:12:28.338Z,9.55
2022-11-05T09:14:55.074Z,10.77
2022-11-05T09:17:22.237Z,9.65
2022-11-05T09:19:48.812Z,10.68
2022-11-05T09:22:15.804Z,11.65
2022-11-05T09:24:43.404Z,11.57
2022-11-05T09:27:13.096Z,9.38
2022-11-05T09:29:40.346Z,10.15
2022-11-05T09:32:07.395Z,10.25
2022-11-05T09:34:34.796Z,8.68
2022-11-05T09:37:01.992Z,10.55
2022-11-05T09:39:28.630Z,10.25
2022-11-05T09:42:02.272Z,11.82
2022-11-05T09:44:52.869Z,11.68
2022-11-05T09:47:29.473Z,8.88
2022-11-05T09:49:59.071Z,10.25
2022-11-05T09:52:29.409Z,8.60
2022-11-05T09:54:57.707Z,11.20
2022-11-05T09:57:29.747Z,10.88
2022-11-05T10:00:02.285Z,8.90
2022-11-05T10:02:42.770Z,12.80
2022-11-05T10:05:12.799Z,9.43
2022-11-05T10:07:47.529Z,10.38
2022-11-05T10:10:23.054Z,9.98
2022-11-05T10:12:57.650Z,9.90
2022-11-05T10:15:30.681Z,12.02
2022-11-05T10:18:11.981Z,11.43
2022-11-05T10:20:39.520Z,11.50
2022-11-05T10:23:11.987Z,7.93
2022-11-05T10:25:43.783Z,13.70
2022-11-05T10:28:17.226Z,11.73
2022-11-05T10:30:46.402Z,11.32
2022-11-05T10:33:18.102Z,9.40
2022-11-05T10:35:52.399Z,10.98
2022-11-05T10:38:19.014Z,12.43
2022-11-05T10:40:52.153Z,9.27
2022-11-05T10:43:23.724Z,11.27
2022-11-05T10:46:06.369Z,14.35
2022-11-05T10:48:47.734Z,10.40
2022-11-05T10:51:14.751Z,8.23
2022-11-05T10:54:01.337Z,11.63
2022-11-05T10:56:40.153Z,13.05
2022-11-05T10:59:24.451Z,11.00
2022-11-05T11:02:22.790Z,9.98
2022-11-05T11:04:54.272Z,11.20
2022-11-05T11:07:24.811Z,12.80
2022-11-05T11:09:52.463Z,10.88
2022-11-05T11:12:25.956Z,11.90
2022-11-05T11:15:03.288Z,10.05
2022-11-05T11:17:32.367Z,8.70
2022-11-05T11:20:28.549Z,11.75
2022-11-05T11:23:12.222Z,9.57
2022-11-05T11:25:53.313Z,8.70
2022-11-05T11:28:26.602Z,9.30
2022-11-05T11:31:15.666Z,9.15
2022-11-05T11:33:49.201Z,8.70
2022-11-05T11:36:20.992Z,9.93
2022-11-05T11:38:48.106Z,11.05
2022-11-05T11:41:43.085Z,11.20
2022-11-05T11:44:18.227Z,8.82
2022-11-05T11:46:50.731Z,8.75
2022-11-05T11:49:45.965Z,8.30
2022-11-05T11:52:38.938Z,9.85
2022-11-05T11:55:11.473Z,7.28
2022-11-05T11:57:53.432Z,7.68
2022-11-05T12:00:23.674Z,7.13
2022-11-05T12:03:11.346Z,6.47
2022-11-05T12:09:02.076Z,8.52
2022-11-05T12:11:41.935Z,6.70
2022-11-05T12:14:25.272Z,7.05
2022-11-05T12:17:10.729Z,9.43
2022-11-05T12:19:56.769Z,11.25
2022-11-05T12:22:36.680Z,7.30
2022-11-05T12:25:12.307Z,7.55
2022-11-05T12:27:56.766Z,6.95
2022-11-05T12:30:23.854Z,12.77
2022-11-05T12:33:13.047Z,7.50
2022-11-05T12:36:02.886Z,7.25
2022-11-05T12:38:53.128Z,9.93
2022-11-05T12:41:42.052Z,8.45
2022-11-05T12:44:22.883Z,7.13
2022-11-05T12:47:24.746Z,8.70
2022-11-05T12:50:15.257Z,5.85
2022-11-05T12:53:00.125Z,8.40
2022-11-05T12:55:33.733Z,6.55
2022-11-05T12:58:26.879Z,7.93
2022-11-05T13:01:08.012Z,6.60
2022-11-05T13:03:57.990Z,7.45
2022-11-05T13:06:42.207Z,6.07
2022-11-05T13:09:21.711Z,7.28
2022-11-05T13:11:54.734Z,6.47
2022-11-05T13:14:27.517Z,6.10
2022-11-05T13:17:00.337Z,5.50
2022-11-05T13:19:34.783Z,7.75
2022-11-05T13:22:11.295Z,7.15
2022-11-05T13:24:49.506Z,5.45
2022-11-05T13:27:18.966Z,7.63
2022-11-05T13:29:59.264Z,6.00
2022-11-05T13:32:31.300Z,7.20
2022-11-05T13:35:00.996Z,8.15
2022-11-05T13:38:01.783Z,6.05
2022-11-05T13:40:40.807Z,8.30
2022-11-05T13:43:21.291Z,6.45
2022-11-05T13:46:06.616Z,4.63
2022-11-05T13:48:57.263Z,9.60
2022-11-05T13:51:26.451Z,5.82
2022-11-05T13:53:58.972Z,4.75
2022-11-05T13:56:54.857Z,9.70
2022-11-05T13:59:30.393Z,5.05
2022-11-05T14:01:59.983Z,6.95
2022-11-05T14:04:49.125Z,5.72
2022-11-05T14:07:22.574Z,4.75
2022-11-05T14:09:58.696Z,7.40
2022-11-05T14:12:32.659Z,5.18
2022-11-05T14:15:20.284Z,8.18
2022-11-05T14:18:05.470Z,9.88
2022-11-05T14:20:32.121Z,6.75
2022-11-05T14:23:36.200Z,8.35
2022-11-05T14:26:35.122Z,9.38
2022-11-05T14:29:04.820Z,8.75
2022-11-05T14:32:07.155Z,6.80
2022-11-05T14:34:46.917Z,7.38
2022-11-05T14:37:13.590Z,7.05
2022-11-05T14:39:41.364Z,6.97
2022-11-05T14:42:26.655Z,9.25
2022-11-05T14:45:02.203Z,7.38
2022-11-05T14:47:37.794Z,8.38
2022-11-05T14:50:19.782Z,6.60
2022-11-05T14:52:55.092Z,6.15
2022-11-05T14:55:43.263Z,5.13
2022-11-05T14:58:30.052Z,6.57
2022-11-05T15:00:57.731Z,6.38
2022-11-05T15:03:36.259Z,6.55
2022-11-05T15:06:35.170Z,7.28
2022-11-05T15:09:24.475Z,5.88
2022-11-05T15:12:02.390Z,4.68
2022-11-05T15:14:34.238Z,7.53
2022-11-05T15:17:51.387Z,6.47
2022-11-05T15:20:22.118Z,5.88
2022-11-05T15:22:53.069Z,5.63
2022-11-05T15:25:41.773Z,5.82
2022-11-05T15:28:34.118Z,5.82
2022-11-05T15:31:03.651Z,6.60
2022-11-05T15:33:31.292Z,6.28
2022-11-05T15:36:12.746Z,3.80
2022-11-05T15:38:41.202Z,7.28
2022-11-05T15:41:31.916Z,7.90
2022-11-05T15:43:58.690Z,6.13
2022-11-05T15:46:28.306Z,3.95
2022-11-05T15:48:59.321Z,5.78
2022-11-05T15:51:26.792Z,4.38
2022-11-05T15:54:24.018Z,6.03
2022-11-05T15:56:56.364Z,6.57
2022-11-05T15:59:25.748Z,7.20
2022-11-05T16:01:57.077Z,8.73
2022-11-05T16:04:30.523Z,5.20
2022-11-05T16:07:07.299Z,5.18
2022-11-05T16:09:37.289Z,5.50
2022-11-05T16:12:24.035Z,4.70
2022-11-05T16:15:08.906Z,6.45
2022-11-05T16:17:55.862Z,6.38
2022-11-05T16:20:34.594Z,5.55
2022-11-05T16:23:04.329Z,5.65
2022-11-05T16:25:39.972Z,5.70
2022-11-05T16:28:20.883Z,6.25
2022-11-05T16:31:07.299Z,7.07
2022-11-05T16:33:40.545Z,5.57
2022-11-05T16:36:08.478Z,7.05
2022-11-05T16:38:35.150Z,6.95
2022-11-05T16:41:01.958Z,4.60
2022-11-05T16:43:28.713Z,4.13
2022-11-05T16:45:58.507Z,4.60
2022-11-05T16:48:26.432Z,6.38
2022-11-05T16:50:53.632Z,5.18
2022-11-05T16:53:20.231Z,8.30
2022-11-05T16:55:47.293Z,8.35
2022-11-05T16:58:23.055Z,5.45
2022-11-05T17:00:51.537Z,6.50
2022-11-05T17:03:18.171Z,9.57
2022-11-05T17:05:44.670Z,7.40
2022-11-05T17:08:12.604Z,7.75
2022-11-05T17:10:39.203Z,7.90
2022-11-05T17:13:05.650Z,6.75
2022-11-05T17:15:36.768Z,7.85
2022-11-05T17:18:05.273Z,8.23
2022-11-05T17:23:09.971Z,8.25
2022-11-05T17:25:37.529Z,6.65
2022-11-05T17:28:04.620Z,9.20
2022-11-05T17:30:32.006Z,9.25
2022-11-05T17:32:59.296Z,7.18
2022-11-05T17:35:26.396Z,11.30
2022-11-05T17:37:53.014Z,12.07
2022-11-05T17:40:22.508Z,8.77
2022-11-05T17:42:50.897Z,7.63
2022-11-05T17:45:17.681Z,7.80
2022-11-05T17:47:44.521Z,6.18
2022-11-05T17:50:14.188Z,8.30
2022-11-05T17:52:40.635Z,7.28
2022-11-05T17:55:16.194Z,6.00
2022-11-05T17:57:50.774Z,6.85
2022-11-05T18:00:20.371Z,5.82
2022-11-05T18:02:49.419Z,6.40
2022-11-05T18:05:18.087Z,9.35
2022-11-05T18:07:45.390Z,6.18
2022-11-05T18:10:12.200Z,8.15
2022-11-05T18:12:39.027Z,4.90
2022-11-05T18:15:06.615Z,6.05
2022-11-05T18:17:34.069Z,4.90
2022-11-05T18:20:00.723Z,5.88
2022-11-05T18:22:27.272Z,6.32
2022-11-05T18:24:54.637Z,4.97
2022-11-05T18:27:24.549Z,7.20
2022-11-05T18:29:51.191Z,4.40
2022-11-05T18:32:17.704Z,7.55
2022-11-05T18:34:44.215Z,6.53
2022-11-05T18:37:10.745Z,9.52
2022-11-05T18:39:37.495Z,5.40
2022-11-05T18:42:04.807Z,8.98
2022-11-05T18:44:36.247Z,7.72
2022-11-05T18:47:06.700Z,7.05
2022-11-05T18:49:33.853Z,5.20
2022-11-05T18:52:00.492Z,9.98
2022-11-05T18:54:27.392Z,6.45
2022-11-05T18:56:54.002Z,6.20
2022-11-05T18:59:39.129Z,7.53
2022-11-05T19:02:07.679Z,7.07
2022-11-05T19:04:37.986Z,7.07
2022-11-05T19:07:07.313Z,8.07
2022-11-05T19:09:38.348Z,7.10
2022-11-05T19:12:06.350Z,6.40
2022-11-05T19:14:33.824Z,7.82
2022-11-05T19:17:00.696Z,8.85
2022-11-05T19:19:27.760Z,5.43
2022-11-05T19:21:54.592Z,7.10
2022-11-05T19:24:21.244Z,7.97
2022-11-05T19:26:48.076Z,11.43
2022-11-05T19:29:14.819Z,8.35
2022-11-05T19:31:41.946Z,7.70
2022-11-05T19:34:08.796Z,5.47
2022-11-05T19:36:35.353Z,6.53
2022-11-05T19:39:06.310Z,8.50
2022-11-05T19:41:33.079Z,6.18
2022-11-05T19:44:01.490Z,8.10
2022-11-05T19:46:28.705Z,7.75
2022-11-05T19:48:55.262Z,6.90
2022-11-05T19:51:27.663Z,6.68
2022-11-05T19:53:55.414Z,5.65
2022-11-05T19:56:27.702Z,5.88
2022-11-05T19:58:56.232Z,6.28
2022-11-05T20:03:50.856Z,8.30
2022-11-05T20:06:20.949Z,6.85
2022-11-05T20:09:15.287Z,7.82
2022-11-05T20:11:40.127Z,8.23
2022-11-05T20:14:07.639Z,7.47
2022-11-05T20:16:38.214Z,9.18
2022-11-05T20:19:08.160Z,8.35
2022-11-05T20:21:35.264Z,9.20
2022-11-05T20:24:02.504Z,7.43
2022-11-05T20:26:29.292Z,6.70
2022-11-05T20:28:56.317Z,9.98
2022-11-05T20:31:23.120Z,8.77
2022-11-05T20:33:51.334Z,8.13
2022-11-05T20:36:22.220Z,9.82
2022-11-05T20:38:53.279Z,9.25
2022-11-05T20:41:19.904Z,12.52
2022-11-05T20:43:47.930Z,10.20
2022-11-05T20:46:17.061Z,9.55
2022-11-05T20:48:44.211Z,12.00
2022-11-05T20:51:21.674Z,10.90
2022-11-05T20:53:48.905Z,8.85
2022-11-05T20:56:18.153Z,9.43
2022-11-05T20:58:44.569Z,11.55
2022-11-05T21:01:13.218Z,11.23
2022-11-05T21:03:39.888Z,9.45
2022-11-05T21:06:06.443Z,8.13
2022-11-05T21:08:33.689Z,9.15
2022-11-05T21:11:00.498Z,8.02
2022-11-05T21:13:27.744Z,8.10
2022-11-05T21:15:57.038Z,7.85
2022-11-05T21:18:28.636Z,7.93
2022-11-05T21:20:55.679Z,7.88
2022-11-05T21:23:22.259Z,8.02
2022-11-05T21:25:48.725Z,7.35
2022-11-05T21:28:15.959Z,8.90
2022-11-05T21:30:49.150Z,8.70
2022-11-05T21:33:18.535Z,8.82
2022-11-05T21:35:47.871Z,7.55
2022-11-05T21:38:16.752Z,6.22
2022-11-05T21:40:44.635Z,7.18
2022-11-05T21:43:12.364Z,10.15
2022-11-05T21:45:42.702Z,7.55
2022-11-05T21:48:10.423Z,7.88
2022-11-05T21:51:04.271Z,9.30
2022-11-05T21:53:49.187Z,6.28
2022-11-05T21:56:41.009Z,7.15
2022-11-05T21:59:30.305Z,13.35
2022-11-05T22:02:01.722Z,7.97
2022-11-05T22:04:34.026Z,7.15
2022-11-05T22:07:00.642Z,7.72
2022-11-05T22:09:27.984Z,7.82
2022-11-05T22:11:54.961Z,10.38
2022-11-05T22:14:21.686Z,7.47
2022-11-05T22:16:48.482Z,7.18
2022-11-05T22:19:14.976Z,11.20
2022-11-05T22:21:41.679Z,9.02
2022-11-05T22:24:08.419Z,8.00
2022-11-05T22:26:35.891Z,11.13
2022-11-05T22:29:02.312Z,8.65
2022-11-05T22:31:34.748Z,8.43
2022-11-05T22:34:02.935Z,7.47
2022-11-05T22:36:29.568Z,7.82
2022-11-05T22:38:55.996Z,8.68
2022-11-05T22:41:22.553Z,8.90
2022-11-05T22:43:49.370Z,6.45
2022-11-05T22:46:22.425Z,6.32
2022-11-05T22:48:49.767Z,9.13
2022-11-05T22:51:22.160Z,9.15
2022-11-05T22:53:49.525Z,10.90
2022-11-05T22:56:22.648Z,7.78
2022-11-05T22:58:49.773Z,9.75
2022-11-05T23:01:17.901Z,10.10
2022-11-05T23:03:46.461Z,9.07
2022-11-05T23:06:36.725Z,7.00
2022-11-05T23:09:26.600Z,7.93
2022-11-05T23:11:54.091Z,9.55
2022-11-05T23:14:20.725Z,7.05
2022-11-05T23:17:05.811Z,8.57
2022-11-05T23:19:50.919Z,9.38
2022-11-05T23:22:39.307Z,8.38
2022-11-05T23:25:09.193Z,10.32
2022-11-05T23:27:37.354Z,7.53
2022-11-05T23:30:11.424Z,10.15
2022-11-05T23:32:38.151Z,8.52
2022-11-05T23:35:05.243Z,8.27
2022-11-05T23:37:50.413Z,9.65
2022-11-05T23:40:20.752Z,6.57
2022-11-05T23:43:06.511Z,8.68
2022-11-05T23:45:52.238Z,11.02
2022-11-05T23:48:30.792Z,5.90
2022-11-05T23:51:03.379Z,9.57
2022-11-05T23:53:32.442Z,9.05
2022-11-05T23:56:05.656Z,11.43
2022-11-05T23:58:33.263Z,8.65
